sensor_id;sensor_type;location;lat;lon;timestamp;P1;durP1;ratioP1;P2;durP2;ratioP2
23117;SDS011;11728;50.624;6.014;2023-06-04T00:03:30;3.75;;;1.15;;
23117;SDS011;11728;50.624;6.014;2023-06-04T00:08:50;3.10;;;1.02;;
23117;SDS011;11728;50.624;6.014;2023-06-04T00:14:12;2.28;;;1.10;;
23117;SDS011;11728;50.624;6.014;2023-06-04T00:19:33;4.38;;;0.93;;
23117;SDS011;11728;50.624;6.014;2023-06-04T00:24:55;3.42;;;0.95;;
23117;SDS011;11728;50.624;6.014;2023-06-04T00:30:16;3.60;;;1.05;;
23117;SDS011;11728;50.624;6.014;2023-06-04T00:35:36;2.15;;;1.00;;
23117;SDS011;11728;50.624;6.014;2023-06-04T00:40:57;2.30;;;1.13;;
23117;SDS011;11728;50.624;6.014;2023-06-04T00:46:18;2.60;;;1.10;;
23117;SDS011;11728;50.624;6.014;2023-06-04T00:51:41;3.38;;;0.90;;
23117;SDS011;11728;50.624;6.014;2023-06-04T00:57:02;6.57;;;1.20;;
23117;SDS011;11728;50.624;6.014;2023-06-04T01:02:24;3.55;;;1.30;;
23117;SDS011;11728;50.624;6.014;2023-06-04T01:07:47;4.45;;;1.70;;
23117;SDS011;11728;50.624;6.014;2023-06-04T01:13:08;3.97;;;1.00;;
23117;SDS011;11728;50.624;6.014;2023-06-04T01:18:29;3.50;;;1.30;;
23117;SDS011;11728;50.624;6.014;2023-06-04T01:23:53;2.80;;;1.50;;
23117;SDS011;11728;50.624;6.014;2023-06-04T01:29:20;3.60;;;1.08;;
23117;SDS011;11728;50.624;6.014;2023-06-04T01:34:46;2.92;;;1.00;;
23117;SDS011;11728;50.624;6.014;2023-06-04T01:40:07;4.05;;;1.05;;
23117;SDS011;11728;50.624;6.014;2023-06-04T01:45:28;4.20;;;1.08;;
23117;SDS011;11728;50.624;6.014;2023-06-04T01:50:50;2.97;;;1.20;;
23117;SDS011;11728;50.624;6.014;2023-06-04T01:56:11;7.65;;;1.25;;
23117;SDS011;11728;50.624;6.014;2023-06-04T02:01:33;2.92;;;1.40;;
23117;SDS011;11728;50.624;6.014;2023-06-04T02:06:54;3.08;;;1.08;;
23117;SDS011;11728;50.624;6.014;2023-06-04T02:12:16;3.28;;;1.13;;
23117;SDS011;11728;50.624;6.014;2023-06-04T02:17:37;2.05;;;1.00;;
23117;SDS011;11728;50.624;6.014;2023-06-04T02:23:00;2.05;;;1.08;;
23117;SDS011;11728;50.624;6.014;2023-06-04T02:28:21;1.90;;;1.10;;
23117;SDS011;11728;50.624;6.014;2023-06-04T02:33:41;2.13;;;1.10;;
23117;SDS011;11728;50.624;6.014;2023-06-04T02:39:02;5.40;;;1.40;;
23117;SDS011;11728;50.624;6.014;2023-06-04T02:44:23;1.63;;;0.98;;
23117;SDS011;11728;50.624;6.014;2023-06-04T02:49:44;2.67;;;1.00;;
23117;SDS011;11728;50.624;6.014;2023-06-04T02:55:06;3.70;;;1.13;;
23117;SDS011;11728;50.624;6.014;2023-06-04T03:00:29;2.65;;;1.25;;
23117;SDS011;11728;50.624;6.014;2023-06-04T03:05:49;2.35;;;1.15;;
23117;SDS011;11728;50.624;6.014;2023-06-04T03:11:10;3.17;;;1.30;;
23117;SDS011;11728;50.624;6.014;2023-06-04T03:16:31;2.83;;;1.10;;
23117;SDS011;11728;50.624;6.014;2023-06-04T03:21:52;2.28;;;1.20;;
23117;SDS011;11728;50.624;6.014;2023-06-04T03:27:12;5.05;;;1.10;;
23117;SDS011;11728;50.624;6.014;2023-06-04T03:32:33;5.80;;;1.50;;
23117;SDS011;11728;50.624;6.014;2023-06-04T03:37:54;5.93;;;1.33;;
23117;SDS011;11728;50.624;6.014;2023-06-04T03:43:15;2.97;;;1.00;;
23117;SDS011;11728;50.624;6.014;2023-06-04T03:48:35;3.33;;;1.20;;
23117;SDS011;11728;50.624;6.014;2023-06-04T03:53:57;2.38;;;1.10;;
23117;SDS011;11728;50.624;6.014;2023-06-04T03:59:18;2.95;;;1.20;;
23117;SDS011;11728;50.624;6.014;2023-06-04T04:04:39;2.22;;;1.08;;
23117;SDS011;11728;50.624;6.014;2023-06-04T04:10:00;2.83;;;1.38;;
23117;SDS011;11728;50.624;6.014;2023-06-04T04:15:21;2.88;;;1.42;;
23117;SDS011;11728;50.624;6.014;2023-06-04T04:20:42;2.33;;;1.20;;
23117;SDS011;11728;50.624;6.014;2023-06-04T04:26:02;2.03;;;1.15;;
23117;SDS011;11728;50.624;6.014;2023-06-04T04:31:23;3.50;;;1.55;;
23117;SDS011;11728;50.624;6.014;2023-06-04T04:36:44;2.45;;;1.08;;
23117;SDS011;11728;50.624;6.014;2023-06-04T04:42:09;3.75;;;1.10;;
23117;SDS011;11728;50.624;6.014;2023-06-04T04:47:29;4.85;;;1.60;;
23117;SDS011;11728;50.624;6.014;2023-06-04T04:52:50;2.75;;;1.05;;
23117;SDS011;11728;50.624;6.014;2023-06-04T04:58:11;2.97;;;1.38;;
23117;SDS011;11728;50.624;6.014;2023-06-04T05:03:32;3.35;;;1.08;;
23117;SDS011;11728;50.624;6.014;2023-06-04T05:08:53;4.95;;;1.23;;
23117;SDS011;11728;50.624;6.014;2023-06-04T05:14:14;3.40;;;1.48;;
23117;SDS011;11728;50.624;6.014;2023-06-04T05:19:34;2.10;;;1.10;;
23117;SDS011;11728;50.624;6.014;2023-06-04T05:24:55;2.45;;;1.15;;
23117;SDS011;11728;50.624;6.014;2023-06-04T05:30:19;7.35;;;1.38;;
23117;SDS011;11728;50.624;6.014;2023-06-04T05:35:40;3.63;;;1.40;;
23117;SDS011;11728;50.624;6.014;2023-06-04T05:41:01;2.83;;;1.20;;
23117;SDS011;11728;50.624;6.014;2023-06-04T05:46:22;2.00;;;1.17;;
23117;SDS011;11728;50.624;6.014;2023-06-04T05:51:43;3.40;;;1.20;;
23117;SDS011;11728;50.624;6.014;2023-06-04T05:57:04;3.95;;;1.65;;
23117;SDS011;11728;50.624;6.014;2023-06-04T06:02:26;3.80;;;1.25;;
23117;SDS011;11728;50.624;6.014;2023-06-04T06:07:47;5.65;;;1.52;;
23117;SDS011;11728;50.624;6.014;2023-06-04T06:13:08;3.15;;;1.38;;
23117;SDS011;11728;50.624;6.014;2023-06-04T06:18:28;1.95;;;1.15;;
23117;SDS011;11728;50.624;6.014;2023-06-04T06:23:49;3.95;;;1.17;;
23117;SDS011;11728;50.624;6.014;2023-06-04T06:29:10;5.28;;;1.45;;
23117;SDS011;11728;50.624;6.014;2023-06-04T06:34:30;4.03;;;1.40;;
23117;SDS011;11728;50.624;6.014;2023-06-04T06:39:51;4.63;;;1.25;;
23117;SDS011;11728;50.624;6.014;2023-06-04T06:45:12;5.38;;;1.30;;
23117;SDS011;11728;50.624;6.014;2023-06-04T06:50:33;2.63;;;1.48;;
23117;SDS011;11728;50.624;6.014;2023-06-04T06:55:55;5.53;;;1.55;;
23117;SDS011;11728;50.624;6.014;2023-06-04T07:01:16;5.55;;;1.60;;
23117;SDS011;11728;50.624;6.014;2023-06-04T07:06:37;3.65;;;1.23;;
23117;SDS011;11728;50.624;6.014;2023-06-04T07:11:58;7.07;;;1.73;;
23117;SDS011;11728;50.624;6.014;2023-06-04T07:17:19;4.70;;;1.38;;
23117;SDS011;11728;50.624;6.014;2023-06-04T07:22:40;2.90;;;1.30;;
23117;SDS011;11728;50.624;6.014;2023-06-04T07:28:00;5.55;;;1.30;;
23117;SDS011;11728;50.624;6.014;2023-06-04T07:33:24;2.72;;;1.48;;
23117;SDS011;11728;50.624;6.014;2023-06-04T07:38:45;5.78;;;1.80;;
23117;SDS011;11728;50.624;6.014;2023-06-04T07:44:06;4.93;;;1.73;;
23117;SDS011;11728;50.624;6.014;2023-06-04T07:49:27;7.60;;;1.60;;
23117;SDS011;11728;50.624;6.014;2023-06-04T07:54:48;2.78;;;1.30;;
23117;SDS011;11728;50.624;6.014;2023-06-04T08:00:09;4.00;;;1.30;;
23117;SDS011;11728;50.624;6.014;2023-06-04T08:05:30;6.38;;;1.38;;
23117;SDS011;11728;50.624;6.014;2023-06-04T08:10:51;4.65;;;1.63;;
23117;SDS011;11728;50.624;6.014;2023-06-04T08:16:12;2.15;;;1.00;;
23117;SDS011;11728;50.624;6.014;2023-06-04T08:21:33;2.60;;;1.40;;
23117;SDS011;11728;50.624;6.014;2023-06-04T08:26:54;3.42;;;1.30;;
23117;SDS011;11728;50.624;6.014;2023-06-04T08:32:15;4.07;;;1.08;;
23117;SDS011;11728;50.624;6.014;2023-06-04T08:37:35;2.65;;;1.40;;
23117;SDS011;11728;50.624;6.014;2023-06-04T08:42:56;3.22;;;1.15;;
23117;SDS011;11728;50.624;6.014;2023-06-04T08:48:20;3.03;;;0.95;;
23117;SDS011;11728;50.624;6.014;2023-06-04T08:53:44;6.82;;;1.10;;
23117;SDS011;11728;50.624;6.014;2023-06-04T08:59:09;4.32;;;1.20;;
23117;SDS011;11728;50.624;6.014;2023-06-04T09:04:32;4.85;;;0.98;;
23117;SDS011;11728;50.624;6.014;2023-06-04T09:09:53;5.60;;;1.50;;
23117;SDS011;11728;50.624;6.014;2023-06-04T09:15:14;3.22;;;0.95;;
23117;SDS011;11728;50.624;6.014;2023-06-04T09:20:35;4.65;;;1.35;;
23117;SDS011;11728;50.624;6.014;2023-06-04T09:25:56;4.82;;;1.73;;
23117;SDS011;11728;50.624;6.014;2023-06-04T09:31:17;5.13;;;1.15;;
23117;SDS011;11728;50.624;6.014;2023-06-04T09:36:38;2.92;;;1.25;;
23117;SDS011;11728;50.624;6.014;2023-06-04T09:41:59;7.00;;;1.38;;
23117;SDS011;11728;50.624;6.014;2023-06-04T09:47:21;4.57;;;1.20;;
23117;SDS011;11728;50.624;6.014;2023-06-04T09:52:41;5.13;;;1.30;;
23117;SDS011;11728;50.624;6.014;2023-06-04T09:58:02;2.80;;;1.50;;
23117;SDS011;11728;50.624;6.014;2023-06-04T10:03:25;2.70;;;1.13;;
23117;SDS011;11728;50.624;6.014;2023-06-04T10:08:53;5.70;;;1.10;;
23117;SDS011;11728;50.624;6.014;2023-06-04T10:14:21;3.78;;;1.30;;
23117;SDS011;11728;50.624;6.014;2023-06-04T10:19:45;3.22;;;1.60;;
23117;SDS011;11728;50.624;6.014;2023-06-04T10:25:08;4.38;;;1.42;;
23117;SDS011;11728;50.624;6.014;2023-06-04T10:30:30;4.20;;;1.23;;
23117;SDS011;11728;50.624;6.014;2023-06-04T10:35:53;6.60;;;1.65;;
23117;SDS011;11728;50.624;6.014;2023-06-04T10:41:16;4.55;;;1.30;;
23117;SDS011;11728;50.624;6.014;2023-06-04T10:46:38;5.30;;;1.67;;
23117;SDS011;11728;50.624;6.014;2023-06-04T10:52:09;6.93;;;1.50;;
23117;SDS011;11728;50.624;6.014;2023-06-04T10:57:31;4.68;;;1.27;;
23117;SDS011;11728;50.624;6.014;2023-06-04T11:02:52;4.97;;;1.45;;
23117;SDS011;11728;50.624;6.014;2023-06-04T11:08:25;3.67;;;1.58;;
23117;SDS011;11728;50.624;6.014;2023-06-04T11:13:48;4.93;;;1.60;;
23117;SDS011;11728;50.624;6.014;2023-06-04T11:19:09;5.03;;;1.40;;
23117;SDS011;11728;50.624;6.014;2023-06-04T11:24:31;4.25;;;1.60;;
23117;SDS011;11728;50.624;6.014;2023-06-04T11:29:53;2.97;;;1.50;;
23117;SDS011;11728;50.624;6.014;2023-06-04T11:35:14;4.43;;;1.38;;
23117;SDS011;11728;50.624;6.014;2023-06-04T11:40:35;3.60;;;1.30;;
23117;SDS011;11728;50.624;6.014;2023-06-04T11:45:56;4.22;;;1.35;;
23117;SDS011;11728;50.624;6.014;2023-06-04T11:51:17;5.47;;;1.48;;
23117;SDS011;11728;50.624;6.014;2023-06-04T11:56:39;2.42;;;1.13;;
23117;SDS011;11728;50.624;6.014;2023-06-04T12:02:00;4.47;;;1.30;;
23117;SDS011;11728;50.624;6.014;2023-06-04T12:07:21;3.45;;;1.45;;
23117;SDS011;11728;50.624;6.014;2023-06-04T12:12:45;2.10;;;1.10;;
23117;SDS011;11728;50.624;6.014;2023-06-04T12:18:06;2.88;;;1.20;;
23117;SDS011;11728;50.624;6.014;2023-06-04T12:23:26;2.97;;;1.33;;
23117;SDS011;11728;50.624;6.014;2023-06-04T12:28:57;4.35;;;1.08;;
23117;SDS011;11728;50.624;6.014;2023-06-04T12:34:19;3.17;;;1.10;;
23117;SDS011;11728;50.624;6.014;2023-06-04T12:39:40;3.53;;;1.50;;
23117;SDS011;11728;50.624;6.014;2023-06-04T12:45:00;5.85;;;1.55;;
23117;SDS011;11728;50.624;6.014;2023-06-04T12:50:21;5.20;;;1.70;;
23117;SDS011;11728;50.624;6.014;2023-06-04T12:55:42;4.90;;;1.40;;
23117;SDS011;11728;50.624;6.014;2023-06-04T13:01:03;3.38;;;1.50;;
23117;SDS011;11728;50.624;6.014;2023-06-04T13:06:24;4.95;;;1.60;;
23117;SDS011;11728;50.624;6.014;2023-06-04T13:11:45;10.90;;;1.70;;
23117;SDS011;11728;50.624;6.014;2023-06-04T13:17:05;3.60;;;1.27;;
23117;SDS011;11728;50.624;6.014;2023-06-04T13:22:26;3.35;;;1.42;;
23117;SDS011;11728;50.624;6.014;2023-06-04T13:27:48;4.20;;;1.40;;
23117;SDS011;11728;50.624;6.014;2023-06-04T13:33:08;5.07;;;1.38;;
23117;SDS011;11728;50.624;6.014;2023-06-04T13:38:30;4.60;;;1.60;;
23117;SDS011;11728;50.624;6.014;2023-06-04T13:43:51;5.60;;;1.67;;
23117;SDS011;11728;50.624;6.014;2023-06-04T13:49:11;7.43;;;1.75;;
23117;SDS011;11728;50.624;6.014;2023-06-04T13:54:32;3.60;;;1.42;;
23117;SDS011;11728;50.624;6.014;2023-06-04T13:59:53;5.82;;;1.30;;
23117;SDS011;11728;50.624;6.014;2023-06-04T14:05:14;3.03;;;1.45;;
23117;SDS011;11728;50.624;6.014;2023-06-04T14:10:35;3.40;;;1.50;;
23117;SDS011;11728;50.624;6.014;2023-06-04T14:16:01;5.47;;;1.20;;
23117;SDS011;11728;50.624;6.014;2023-06-04T14:21:21;2.40;;;1.40;;
23117;SDS011;11728;50.624;6.014;2023-06-04T14:26:42;6.10;;;1.50;;
23117;SDS011;11728;50.624;6.014;2023-06-04T14:32:04;5.68;;;1.58;;
23117;SDS011;11728;50.624;6.014;2023-06-04T14:37:25;3.10;;;1.30;;
23117;SDS011;11728;50.624;6.014;2023-06-04T14:42:46;4.40;;;1.70;;
23117;SDS011;11728;50.624;6.014;2023-06-04T14:48:06;3.28;;;1.58;;
23117;SDS011;11728;50.624;6.014;2023-06-04T14:53:27;4.70;;;1.70;;
23117;SDS011;11728;50.624;6.014;2023-06-04T14:58:48;5.68;;;2.13;;
23117;SDS011;11728;50.624;6.014;2023-06-04T15:04:09;4.30;;;1.80;;
23117;SDS011;11728;50.624;6.014;2023-06-04T15:09:29;7.15;;;1.67;;
23117;SDS011;11728;50.624;6.014;2023-06-04T15:14:50;3.15;;;1.60;;
23117;SDS011;11728;50.624;6.014;2023-06-04T15:20:11;7.20;;;1.63;;
23117;SDS011;11728;50.624;6.014;2023-06-04T15:25:32;5.95;;;1.60;;
23117;SDS011;11728;50.624;6.014;2023-06-04T15:30:52;4.15;;;1.50;;
23117;SDS011;11728;50.624;6.014;2023-06-04T15:36:13;5.07;;;1.90;;
23117;SDS011;11728;50.624;6.014;2023-06-04T15:41:34;3.25;;;1.60;;
23117;SDS011;11728;50.624;6.014;2023-06-04T15:46:54;6.30;;;2.70;;
23117;SDS011;11728;50.624;6.014;2023-06-04T15:52:18;10.15;;;3.20;;
23117;SDS011;11728;50.624;6.014;2023-06-04T15:57:40;9.68;;;3.85;;
23117;SDS011;11728;50.624;6.014;2023-06-04T16:03:00;4.53;;;1.80;;
23117;SDS011;11728;50.624;6.014;2023-06-04T16:08:21;4.70;;;1.90;;
23117;SDS011;11728;50.624;6.014;2023-06-04T16:13:42;5.07;;;4.35;;
23117;SDS011;11728;50.624;6.014;2023-06-04T16:19:02;8.75;;;4.40;;
23117;SDS011;11728;50.624;6.014;2023-06-04T16:24:23;4.20;;;2.67;;
23117;SDS011;11728;50.624;6.014;2023-06-04T16:29:44;3.42;;;1.98;;
23117;SDS011;11728;50.624;6.014;2023-06-04T16:35:05;4.78;;;2.55;;
23117;SDS011;11728;50.624;6.014;2023-06-04T16:40:28;9.00;;;2.67;;
23117;SDS011;11728;50.624;6.014;2023-06-04T16:45:50;4.68;;;2.15;;
23117;SDS011;11728;50.624;6.014;2023-06-04T16:51:11;4.25;;;2.30;;
23117;SDS011;11728;50.624;6.014;2023-06-04T16:56:31;4.30;;;2.50;;
23117;SDS011;11728;50.624;6.014;2023-06-04T17:01:52;5.93;;;2.10;;
23117;SDS011;11728;50.624;6.014;2023-06-04T17:07:13;3.28;;;1.85;;
23117;SDS011;11728;50.624;6.014;2023-06-04T17:12:34;3.75;;;2.20;;
23117;SDS011;11728;50.624;6.014;2023-06-04T17:17:56;4.40;;;2.05;;
23117;SDS011;11728;50.624;6.014;2023-06-04T17:23:21;5.85;;;1.90;;
23117;SDS011;11728;50.624;6.014;2023-06-04T17:28:43;2.80;;;1.77;;
23117;SDS011;11728;50.624;6.014;2023-06-04T17:34:03;7.45;;;1.90;;
23117;SDS011;11728;50.624;6.014;2023-06-04T17:39:24;4.55;;;1.90;;
23117;SDS011;11728;50.624;6.014;2023-06-04T17:44:45;2.78;;;1.67;;
23117;SDS011;11728;50.624;6.014;2023-06-04T17:50:06;9.13;;;1.77;;
23117;SDS011;11728;50.624;6.014;2023-06-04T17:55:28;2.33;;;1.60;;
23117;SDS011;11728;50.624;6.014;2023-06-04T18:00:49;6.45;;;2.08;;
23117;SDS011;11728;50.624;6.014;2023-06-04T18:06:10;5.65;;;1.80;;
23117;SDS011;11728;50.624;6.014;2023-06-04T18:11:30;6.97;;;2.40;;
23117;SDS011;11728;50.624;6.014;2023-06-04T18:16:51;5.53;;;2.38;;
23117;SDS011;11728;50.624;6.014;2023-06-04T18:22:12;7.20;;;1.80;;
23117;SDS011;11728;50.624;6.014;2023-06-04T18:27:36;5.60;;;2.00;;
23117;SDS011;11728;50.624;6.014;2023-06-04T18:32:57;6.30;;;1.98;;
23117;SDS011;11728;50.624;6.014;2023-06-04T18:38:18;5.05;;;1.52;;
23117;SDS011;11728;50.624;6.014;2023-06-04T18:43:38;4.25;;;1.65;;
23117;SDS011;11728;50.624;6.014;2023-06-04T18:48:59;4.45;;;1.70;;
23117;SDS011;11728;50.624;6.014;2023-06-04T18:54:21;4.50;;;1.85;;
23117;SDS011;11728;50.624;6.014;2023-06-04T18:59:42;4.47;;;2.13;;
23117;SDS011;11728;50.624;6.014;2023-06-04T19:05:04;4.85;;;2.08;;
23117;SDS011;11728;50.624;6.014;2023-06-04T19:10:26;4.18;;;2.05;;
23117;SDS011;11728;50.624;6.014;2023-06-04T19:15:47;4.45;;;2.03;;
23117;SDS011;11728;50.624;6.014;2023-06-04T19:21:12;5.57;;;1.75;;
23117;SDS011;11728;50.624;6.014;2023-06-04T19:26:33;7.28;;;1.70;;
23117;SDS011;11728;50.624;6.014;2023-06-04T19:31:54;3.40;;;1.98;;
23117;SDS011;11728;50.624;6.014;2023-06-04T19:37:15;7.57;;;1.92;;
23117;SDS011;11728;50.624;6.014;2023-06-04T19:42:36;4.32;;;1.50;;
23117;SDS011;11728;50.624;6.014;2023-06-04T19:47:56;7.00;;;1.90;;
23117;SDS011;11728;50.624;6.014;2023-06-04T19:53:18;6.75;;;2.15;;
23117;SDS011;11728;50.624;6.014;2023-06-04T19:58:39;7.80;;;2.00;;
23117;SDS011;11728;50.624;6.014;2023-06-04T20:04:00;5.13;;;2.42;;
23117;SDS011;11728;50.624;6.014;2023-06-04T20:09:21;6.32;;;2.20;;
23117;SDS011;11728;50.624;6.014;2023-06-04T20:14:41;7.68;;;2.45;;
23117;SDS011;11728;50.624;6.014;2023-06-04T20:20:02;6.40;;;2.22;;
23117;SDS011;11728;50.624;6.014;2023-06-04T20:25:23;4.47;;;2.22;;
23117;SDS011;11728;50.624;6.014;2023-06-04T20:30:44;8.57;;;2.13;;
23117;SDS011;11728;50.624;6.014;2023-06-04T20:36:05;4.57;;;1.98;;
23117;SDS011;11728;50.624;6.014;2023-06-04T20:41:27;4.38;;;1.95;;
23117;SDS011;11728;50.624;6.014;2023-06-04T20:46:47;8.52;;;2.00;;
23117;SDS011;11728;50.624;6.014;2023-06-04T20:52:08;5.88;;;1.90;;
23117;SDS011;11728;50.624;6.014;2023-06-04T20:57:29;3.40;;;1.80;;
23117;SDS011;11728;50.624;6.014;2023-06-04T21:02:50;4.20;;;2.03;;
23117;SDS011;11728;50.624;6.014;2023-06-04T21:08:10;4.20;;;1.90;;
23117;SDS011;11728;50.624;6.014;2023-06-04T21:13:31;4.75;;;2.20;;
23117;SDS011;11728;50.624;6.014;2023-06-04T21:18:52;6.35;;;1.90;;
23117;SDS011;11728;50.624;6.014;2023-06-04T21:24:13;5.85;;;2.13;;
23117;SDS011;11728;50.624;6.014;2023-06-04T21:29:34;5.68;;;2.00;;
23117;SDS011;11728;50.624;6.014;2023-06-04T21:34:55;7.20;;;1.80;;
23117;SDS011;11728;50.624;6.014;2023-06-04T21:40:16;7.07;;;1.90;;
23117;SDS011;11728;50.624;6.014;2023-06-04T21:45:36;4.45;;;1.98;;
23117;SDS011;11728;50.624;6.014;2023-06-04T21:50:57;7.13;;;1.95;;
23117;SDS011;11728;50.624;6.014;2023-06-04T21:56:18;7.32;;;2.00;;
23117;SDS011;11728;50.624;6.014;2023-06-04T22:01:39;4.50;;;2.17;;
23117;SDS011;11728;50.624;6.014;2023-06-04T22:07:00;4.05;;;2.40;;
23117;SDS011;11728;50.624;6.014;2023-06-04T22:12:21;4.50;;;1.95;;
23117;SDS011;11728;50.624;6.014;2023-06-04T22:17:42;4.97;;;2.28;;
23117;SDS011;11728;50.624;6.014;2023-06-04T22:23:03;12.63;;;2.30;;
23117;SDS011;11728;50.624;6.014;2023-06-04T22:28:24;6.95;;;2.17;;
23117;SDS011;11728;50.624;6.014;2023-06-04T22:33:45;5.43;;;2.00;;
23117;SDS011;11728;50.624;6.014;2023-06-04T22:39:05;3.92;;;1.83;;
23117;SDS011;11728;50.624;6.014;2023-06-04T22:44:26;6.10;;;1.90;;
23117;SDS011;11728;50.624;6.014;2023-06-04T22:49:48;4.45;;;2.00;;
23117;SDS011;11728;50.624;6.014;2023-06-04T22:55:09;9.73;;;2.25;;
23117;SDS011;11728;50.624;6.014;2023-06-04T23:00:30;5.20;;;1.80;;
23117;SDS011;11728;50.624;6.014;2023-06-04T23:05:51;6.80;;;2.38;;
23117;SDS011;11728;50.624;6.014;2023-06-04T23:11:11;3.65;;;1.92;;
23117;SDS011;11728;50.624;6.014;2023-06-04T23:16:32;3.95;;;2.03;;
23117;SDS011;11728;50.624;6.014;2023-06-04T23:21:53;6.35;;;2.05;;
23117;SDS011;11728;50.624;6.014;2023-06-04T23:27:14;6.15;;;1.90;;
23117;SDS011;11728;50.624;6.014;2023-06-04T23:32:34;5.28;;;2.17;;
23117;SDS011;11728;50.624;6.014;2023-06-04T23:37:55;6.25;;;2.28;;
23117;SDS011;11728;50.624;6.014;2023-06-04T23:43:16;3.83;;;2.05;;
23117;SDS011;11728;50.624;6.014;2023-06-04T23:48:36;7.63;;;2.10;;
23117;SDS011;11728;50.624;6.014;2023-06-04T23:53:57;5.75;;;2.22;;
23117;SDS011;11728;50.624;6.014;2023-06-04T23:59:18;6.63;;;1.92;;
